Furnas — CSBK — position and weather

sailwx.info

Track history (hours):
 
Tides and Currents Weather Stations Pressure Air Temp Water Temp Dewpoint Dewpoint Depression Visibility Wind Speed Wind Dir Waves Ship Positions

Furnas

Last reported at 2018-Feb-19 08:00 UTC. Time now 2018-Feb-19 08:25 UTC.
Position N 38°43' W 009°07'.

Length 100 m; draft 6 m.

Type: Ship. MMSI: 204708000.

Date/timePositionNaut miles runAvg speedWind from/ knotsBaromVisibWave heightAir tempDewpointWater temp
2018-Feb-19 08:00N 38°43' W 009°07'4 8.3
2018-Feb-19 07:30N 38°41' W 009°11'510.3
2018-Feb-19 07:00N 38°41' W 009°18'713.1
2018-Feb-19 06:30N 38°36' W 009°24'714.0
2018-Feb-19 06:00N 38°35' W 009°33'714.1
2018-Feb-19 05:31N 38°34' W 009°42'714.1
2018-Feb-19 05:01N 38°33' W 009°51'714.1
2018-Feb-19 04:30N 38°32' W 009°60'714.2
2018-Feb-19 04:00N 38°31' W 010°09'713.9
2018-Feb-19 03:31N 38°31' W 010°17'714.1
2018-Feb-19 03:01N 38°31' W 010°26'713.7
2018-Feb-19 02:30N 38°31' W 010°35'713.6
2018-Feb-19 02:00N 38°30' W 010°44'713.7
2018-Feb-19 01:31N 38°30' W 010°53'713.6
2018-Feb-19 01:00N 38°30' W 011°02'813.5
2018-Feb-19 00:22N 38°30' W 011°12'713.5
2018-Feb-18 23:53N 38°29' W 011°21'57813.4
2018-Feb-17 04:41N 37°49' W 023°34'313.3
2018-Feb-17 04:27N 37°49' W 023°38'613.5
2018-Feb-17 04:00N 37°48' W 023°45'713.5
2018-Feb-17 03:30N 37°48' W 023°54'713.7
2018-Feb-17 03:00N 37°47' W 024°02'713.6
2018-Feb-17 02:30N 37°46' W 024°11'713.9
2018-Feb-17 02:00N 37°45' W 024°20'713.8
2018-Feb-17 01:30N 37°45' W 024°28'713.9
2018-Feb-17 01:00N 37°44' W 024°37'713.9
2018-Feb-17 00:30N 37°44' W 024°46'714.2
2018-Feb-17 00:00N 37°43' W 024°55'714.2
2018-Feb-16 23:31N 37°42' W 025°04'714.0
2018-Feb-16 23:00N 37°42' W 025°13'714.2
2018-Feb-16 22:30N 37°41' W 025°21'714.6
2018-Feb-16 22:00N 37°41' W 025°31'714.5
2018-Feb-16 21:30N 37°44' W 025°39'1 1.8
2018-Feb-16 21:00N 37°44' W 025°40'0 0.0
2018-Feb-16 20:30N 37°44' W 025°40'0 0.0
2018-Feb-16 20:00N 37°44' W 025°40'0 0.0
2018-Feb-16 19:30N 37°44' W 025°40'0 0.0
2018-Feb-16 19:00N 37°44' W 025°40'0 0.0
2018-Feb-16 18:30N 37°44' W 025°40'0 0.0
2018-Feb-16 18:00N 37°44' W 025°40'0 0.0
2018-Feb-16 17:30N 37°44' W 025°40'0 0.0
2018-Feb-16 17:00N 37°44' W 025°40'0 0.0
2018-Feb-16 16:30N 37°44' W 025°40'0 0.0
2018-Feb-16 16:00N 37°44' W 025°40'0 0.0
2018-Feb-16 15:30N 37°44' W 025°40'0 0.0
2018-Feb-16 15:00N 37°44' W 025°40'0 0.0
2018-Feb-16 14:30N 37°44' W 025°40'0 0.0
2018-Feb-16 14:00N 37°44' W 025°40'0 0.0
2018-Feb-16 13:30N 37°44' W 025°40'0 0.0
2018-Feb-16 13:00N 37°44' W 025°40'0 0.0
2018-Feb-16 12:30N 37°44' W 025°40'0 0.0
2018-Feb-16 12:00N 37°44' W 025°40'0 0.0
2018-Feb-16 11:30N 37°44' W 025°40'1 1.4
2018-Feb-16 11:01N 37°44' W 025°39'4 8.9
2018-Feb-16 10:30N 37°43' W 025°45'714.2
2018-Feb-16 10:01N 37°46' W 025°53'713.6
2018-Feb-16 09:30N 37°48' W 026°01'713.4
2018-Feb-16 09:00N 37°51' W 026°09'713.2
2018-Feb-16 08:30N 37°54' W 026°17'713.4
2018-Feb-16 08:01N 37°56' W 026°25'714.2
2018-Feb-16 07:30N 37°59' W 026°33'714.0
2018-Feb-16 07:00N 38°02' W 026°41'713.8
2018-Feb-16 06:30N 38°04' W 026°49'713.9
2018-Feb-16 06:00N 38°07' W 026°57'713.8
2018-Feb-16 05:30N 38°10' W 027°05'714.3
2018-Feb-16 05:00N 38°12' W 027°14'714.6
2018-Feb-16 04:30N 38°15' W 027°22'714.3
2018-Feb-16 04:00N 38°18' W 027°31'714.3
2018-Feb-16 03:30N 38°21' W 027°39'714.4
2018-Feb-16 03:01N 38°24' W 027°48'714.3
2018-Feb-16 02:30N 38°26' W 027°56'714.1
2018-Feb-16 02:00N 38°29' W 028°05'714.4
2018-Feb-16 01:30N 38°31' W 028°13'5 9.5
2018-Feb-16 01:00N 38°32' W 028°19'0 0.0
2018-Feb-16 00:31N 38°32' W 028°19'0 0.0
2018-Feb-15 23:58N 38°32' W 028°19'0 0.0
2018-Feb-15 23:30N 38°32' W 028°19'0 0.0
2018-Feb-15 22:58N 38°32' W 028°19'0 0.0
2018-Feb-15 22:28N 38°32' W 028°19'0 0.0
2018-Feb-15 21:58N 38°32' W 028°19'0 0.0
2018-Feb-15 21:30N 38°32' W 028°19'0 0.0
2018-Feb-15 21:00N 38°32' W 028°19'0 0.0
2018-Feb-15 20:28N 38°32' W 028°19'0 0.0
2018-Feb-15 19:58N 38°32' W 028°19'0 0.0
2018-Feb-15 19:27N 38°32' W 028°19'0 0.0
2018-Feb-15 18:58N 38°32' W 028°19'0 0.0
2018-Feb-15 18:28N 38°32' W 028°19'0 0.0
2018-Feb-15 18:00N 38°32' W 028°19'0 0.0
2018-Feb-15 17:30N 38°32' W 028°19'0 0.0
2018-Feb-15 17:00N 38°32' W 028°19'0 0.0
2018-Feb-15 16:31N 38°32' W 028°19'0 0.0
2018-Feb-15 15:57N 38°32' W 028°19'0 0.0
2018-Feb-15 15:28N 38°32' W 028°19'0 0.0
2018-Feb-15 14:58N 38°32' W 028°19'0 0.0
2018-Feb-15 14:30N 38°32' W 028°19'0 0.0
2018-Feb-15 14:01N 38°32' W 028°19'0 0.0
2018-Feb-15 13:28N 38°32' W 028°19'0 0.0
2018-Feb-15 12:58N 38°32' W 028°19'0 0.0
2018-Feb-15 12:28N 38°32' W 028°19'0 0.0
2018-Feb-15 11:58N 38°32' W 028°19'0 0.0
2018-Feb-15 11:28N 38°32' W 028°19'0 0.0
2018-Feb-15 10:58N 38°32' W 028°19'0 0.0
2018-Feb-15 10:28N 38°32' W 028°19'0 0.0
2018-Feb-15 09:58N 38°32' W 028°19'0 0.0
2018-Feb-15 09:28N 38°32' W 028°19'0 0.0
2018-Feb-15 08:58N 38°32' W 028°19'1 3.0
2018-Feb-15 08:30N 38°33' W 028°19'2 3.5
2018-Feb-15 08:00N 38°35' W 028°19'612.0
2018-Feb-15 07:30N 38°32' W 028°12'1 1.3
2018-Feb-15 07:00N 38°32' W 028°11'2 3.8
2018-Feb-15 06:31N 38°33' W 028°13'612.3
2018-Feb-15 06:00N 38°32' W 028°05'612.8
2018-Feb-15 05:31N 38°30' W 027°57'713.3
2018-Feb-15 05:00N 38°29' W 027°49'713.3
2018-Feb-15 04:30N 38°31' W 027°41'612.8
2018-Feb-15 04:01N 38°32' W 027°33'612.7
2018-Feb-15 03:30N 38°33' W 027°25'612.7
2018-Feb-15 03:01N 38°34' W 027°17'713.2
2018-Feb-15 02:31N 38°35' W 027°08'612.9
2018-Feb-15 02:00N 38°38' W 027°01'5 9.7
2018-Feb-15 01:30N 38°43' W 027°03'0 0.4
2018-Feb-15 01:00N 38°43' W 027°03'0 0.0
2018-Feb-15 00:30N 38°43' W 027°03'0 0.0
2018-Feb-15 00:00N 38°43' W 027°03'0 0.0
2018-Feb-14 23:30N 38°43' W 027°03'0 0.0
2018-Feb-14 23:00N 38°43' W 027°03'0 0.0
2018-Feb-14 22:30N 38°43' W 027°03'0 0.0
2018-Feb-14 22:00N 38°43' W 027°03'0 0.0
2018-Feb-14 21:30N 38°43' W 027°03'0 0.0
2018-Feb-14 21:00N 38°43' W 027°03'0 0.0
2018-Feb-14 20:30N 38°43' W 027°03'0 0.0
2018-Feb-14 20:00N 38°43' W 027°03'0 0.0
2018-Feb-14 19:30N 38°43' W 027°03'0 0.0
2018-Feb-14 19:00N 38°43' W 027°03'0 0.0
2018-Feb-14 18:27N 38°43' W 027°03'0 0.0
2018-Feb-14 18:00N 38°43' W 027°03'0 0.0
2018-Feb-14 17:21N 38°43' W 027°03'0 0.0
2018-Feb-14 17:00N 38°43' W 027°03'0 0.0
2018-Feb-14 16:30N 38°43' W 027°03'0 0.0
2018-Feb-14 15:57N 38°43' W 027°03'0 0.0
2018-Feb-14 15:30N 38°43' W 027°03'0 0.0
2018-Feb-14 15:00N 38°43' W 027°03'0 0.0
2018-Feb-14 14:30N 38°43' W 027°03'0 0.0
2018-Feb-14 14:00N 38°43' W 027°03'0 0.0
2018-Feb-14 13:30N 38°43' W 027°03'0 0.0
2018-Feb-14 13:00N 38°43' W 027°03'0 0.0
2018-Feb-14 12:30N 38°43' W 027°03'0 0.0
2018-Feb-14 12:00N 38°43' W 027°03'0 0.0
2018-Feb-14 11:30N 38°43' W 027°03'0 0.0
2018-Feb-14 11:00N 38°43' W 027°03'0 0.0
2018-Feb-14 10:30N 38°43' W 027°03'0 0.0
2018-Feb-14 10:00N 38°43' W 027°03'0 0.0
2018-Feb-14 09:30N 38°43' W 027°03'0 0.0
2018-Feb-14 09:00N 38°43' W 027°03'0 0.0
2018-Feb-14 08:30N 38°43' W 027°03'2 3.3
2018-Feb-14 08:00N 38°43' W 027°01'2 4.0
2018-Feb-14 07:30N 38°43' W 026°58'1011.0
2018-Feb-14 06:35N 38°35' W 026°51'1112.1
2018-Feb-14 05:41N 38°27' W 026°42'211.9
2018-Feb-14 05:30N 38°25' W 026°40'612.1
2018-Feb-14 05:00N 38°21' W 026°35'612.3
2018-Feb-14 04:30N 38°16' W 026°29'612.1
2018-Feb-14 04:00N 38°12' W 026°24'611.9
2018-Feb-14 03:30N 38°08' W 026°19'612.4
2018-Feb-14 03:00N 38°03' W 026°13'612.1
2018-Feb-14 02:30N 37°59' W 026°08'612.0
2018-Feb-14 02:00N 37°54' W 026°03'611.9
2018-Feb-14 01:30N 37°50' W 025°58'612.1
2018-Feb-14 01:01N 37°45' W 025°53'612.0
2018-Feb-14 00:31N 37°41' W 025°48'612.1
2018-Feb-14 00:00N 37°36' W 025°43'1 3.0
2018-Feb-13 23:31N 37°35' W 025°41'1 1.2
2018-Feb-13 23:00N 37°35' W 025°42'1 1.1
2018-Feb-13 22:30N 37°35' W 025°43'1 1.1
2018-Feb-13 22:00N 37°35' W 025°44'1 1.0
2018-Feb-13 21:30N 37°35' W 025°44'0 0.4
2018-Feb-13 21:00N 37°35' W 025°44'612.1
2018-Feb-13 20:30N 37°30' W 025°41'611.9
2018-Feb-13 20:00N 37°25' W 025°37'611.7
2018-Feb-13 19:30N 37°20' W 025°33'611.8
2018-Feb-13 19:01N 37°15' W 025°29'611.4
2018-Feb-13 18:31N 37°10' W 025°25'612.1
2018-Feb-13 18:00N 37°05' W 025°20'612.0
2018-Feb-13 17:31N 37°01' W 025°16'611.4
2018-Feb-13 17:00N 36°56' W 025°12'2 3.4
2018-Feb-13 16:24N 36°57' W 025°09'0 0.0
2018-Feb-13 16:00N 36°57' W 025°09'0 0.0
2018-Feb-13 15:30N 36°57' W 025°09'0 0.0
2018-Feb-13 15:00N 36°57' W 025°09'0 0.0
2018-Feb-13 14:30N 36°57' W 025°09'0 0.0
2018-Feb-13 14:00N 36°57' W 025°09'0 0.0
2018-Feb-13 13:30N 36°57' W 025°09'0 0.0
2018-Feb-13 13:00N 36°57' W 025°09'0 0.0
2018-Feb-13 12:30N 36°57' W 025°09'0 0.0
2018-Feb-13 12:00N 36°57' W 025°09'0 0.0
2018-Feb-13 11:30N 36°57' W 025°09'0 0.0
2018-Feb-13 11:00N 36°57' W 025°09'0 0.0
2018-Feb-13 10:30N 36°57' W 025°09'0 0.0
2018-Feb-13 10:00N 36°57' W 025°09'0 0.0
2018-Feb-13 09:30N 36°57' W 025°09'0 0.0
2018-Feb-13 09:00N 36°57' W 025°09'1 1.3
2018-Feb-13 08:30N 36°56' W 025°09'2 3.1
2018-Feb-13 08:00N 36°54' W 025°09'3 5.2
2018-Feb-13 07:30N 36°52' W 025°08'612.7
2018-Feb-13 07:00N 36°55' W 025°15'713.9
2018-Feb-13 06:30N 37°01' W 025°19'713.5
2018-Feb-13 06:00N 37°07' W 025°22'713.8
2018-Feb-13 05:30N 37°14' W 025°25'714.0
2018-Feb-13 05:00N 37°21' W 025°28'714.0
2018-Feb-13 04:30N 37°27' W 025°31'714.1
2018-Feb-13 04:00N 37°34' W 025°34'714.0
2018-Feb-13 03:30N 37°40' W 025°37'4 8.9
2018-Feb-13 03:00N 37°44' W 025°40'0 0.1
2018-Feb-13 02:28N 37°44' W 025°40'0 0.0
2018-Feb-13 01:58N 37°44' W 025°40'0 0.0
2018-Feb-13 01:28N 37°44' W 025°40'0 0.0
2018-Feb-13 00:58N 37°44' W 025°40'0 0.0
2018-Feb-13 00:28N 37°44' W 025°40'0 0.0
2018-Feb-12 23:58N 37°44' W 025°40'0 0.0
2018-Feb-12 23:28N 37°44' W 025°40'0 0.0
2018-Feb-12 22:58N 37°44' W 025°40'0 0.0
2018-Feb-12 22:28N 37°44' W 025°40'0 0.0
2018-Feb-12 21:58N 37°44' W 025°40'0 0.0
2018-Feb-12 21:28N 37°44' W 025°40'0 0.0
2018-Feb-12 20:58N 37°44' W 025°40'0 0.0
2018-Feb-12 20:28N 37°44' W 025°40'0 0.0
2018-Feb-12 19:58N 37°44' W 025°40'0 0.0
2018-Feb-12 19:28N 37°44' W 025°40'0 0.0
2018-Feb-12 18:58N 37°44' W 025°40'0 0.0
2018-Feb-12 18:28N 37°44' W 025°40'0 0.0
2018-Feb-12 17:58N 37°44' W 025°40'0 0.0
2018-Feb-12 17:28N 37°44' W 025°40'0 0.0
2018-Feb-12 16:58N 37°44' W 025°40'0 0.0
2018-Feb-12 16:28N 37°44' W 025°40'0 0.0
2018-Feb-12 15:58N 37°44' W 025°40'0 0.0
2018-Feb-12 15:28N 37°44' W 025°40'0 0.0
2018-Feb-12 14:58N 37°44' W 025°40'0 0.0
2018-Feb-12 14:28N 37°44' W 025°40'0 0.0
2018-Feb-12 13:58N 37°44' W 025°40'0 0.0
2018-Feb-12 13:28N 37°44' W 025°40'0 0.0
2018-Feb-12 12:58N 37°44' W 025°40'0 0.0
2018-Feb-12 12:28N 37°44' W 025°40'0 0.7
2018-Feb-12 11:58N 37°44' W 025°40'3 7.5
2018-Feb-12 11:30N 37°43' W 025°36'713.1
2018-Feb-12 11:01N 37°40' W 025°28'713.3
2018-Feb-12 10:31N 37°39' W 025°20'713.3
2018-Feb-12 10:00N 37°39' W 025°11'613.1
2018-Feb-12 09:31N 37°39' W 025°03'612.9
2018-Feb-12 09:01N 37°40' W 024°55'612.9
2018-Feb-12 08:30N 37°41' W 024°47'713.1
2018-Feb-12 08:00N 37°41' W 024°39'612.9
2018-Feb-12 07:30N 37°41' W 024°30'612.7
2018-Feb-12 07:00N 37°41' W 024°22'612.8
2018-Feb-12 06:30N 37°42' W 024°14'612.9
2018-Feb-12 06:01N 37°43' W 024°06'613.0
2018-Feb-12 05:30N 37°44' W 023°58'612.9
2018-Feb-12 05:00N 37°44' W 023°50'712.8
2018-Feb-12 04:30N 37°45' W 023°42'64212.5
2018-Feb-10 01:07N 38°30' W 010°08'111.8
2018-Feb-10 01:00N 38°30' W 010°06'611.6
2018-Feb-10 00:30N 38°32' W 009°59'611.8
2018-Feb-10 00:00N 38°33' W 009°51'611.8
2018-Feb-09 23:30N 38°34' W 009°44'611.7
2018-Feb-09 23:00N 38°35' W 009°37'311.5
2018-Feb-09 22:46N 38°36' W 009°33'311.6
2018-Feb-09 22:30N 38°36' W 009°29'612.1
2018-Feb-09 22:00N 38°38' W 009°22'13 6.6
2018-Feb-09 20:00N 38°43' W 009°07'0 0.0
2018-Feb-09 19:30N 38°43' W 009°07'0 0.0
2018-Feb-09 19:00N 38°43' W 009°07'0 0.0
2018-Feb-09 18:30N 38°43' W 009°07'0 0.0
2018-Feb-09 17:00N 38°43' W 009°07'0 0.0
2018-Feb-09 16:00N 38°43' W 009°07'0 0.0
2018-Feb-09 15:00N 38°43' W 009°07'0 0.0
2018-Feb-09 14:00N 38°43' W 009°07'0 0.0
2018-Feb-09 13:30N 38°43' W 009°07'0 0.0
2018-Feb-09 12:00N 38°43' W 009°07'0 0.0
2018-Feb-09 09:30N 38°43' W 009°07'  
Track history (hours):
 
Tides and Currents Weather Stations Pressure Air Temp Water Temp Dewpoint Dewpoint Depression Visibility Wind Speed Wind Dir Waves Ship Positions

Furnas

Last reported at 2018-Feb-19 08:00 UTC. Time now 2018-Feb-19 08:25 UTC.
Position N 38°43' W 009°07'.

Length 100 m; draft 6 m.

Type: Ship. MMSI: 204708000.

Date/timePositionNaut miles runAvg speedWind from/ knotsBaromVisibWave heightAir tempDewpointWater temp
2018-Feb-19 08:00N 38°43' W 009°07'4 8.3
2018-Feb-19 07:30N 38°41' W 009°11'510.3
2018-Feb-19 07:00N 38°41' W 009°18'713.1
2018-Feb-19 06:30N 38°36' W 009°24'714.0
2018-Feb-19 06:00N 38°35' W 009°33'714.1
2018-Feb-19 05:31N 38°34' W 009°42'714.1
2018-Feb-19 05:01N 38°33' W 009°51'714.1
2018-Feb-19 04:30N 38°32' W 009°60'714.2
2018-Feb-19 04:00N 38°31' W 010°09'713.9
2018-Feb-19 03:31N 38°31' W 010°17'714.1
2018-Feb-19 03:01N 38°31' W 010°26'713.7
2018-Feb-19 02:30N 38°31' W 010°35'713.6
2018-Feb-19 02:00N 38°30' W 010°44'713.7
2018-Feb-19 01:31N 38°30' W 010°53'713.6
2018-Feb-19 01:00N 38°30' W 011°02'813.5
2018-Feb-19 00:22N 38°30' W 011°12'713.5
2018-Feb-18 23:53N 38°29' W 011°21'57813.4
2018-Feb-17 04:41N 37°49' W 023°34'313.3
2018-Feb-17 04:27N 37°49' W 023°38'613.5
2018-Feb-17 04:00N 37°48' W 023°45'713.5
2018-Feb-17 03:30N 37°48' W 023°54'713.7
2018-Feb-17 03:00N 37°47' W 024°02'713.6
2018-Feb-17 02:30N 37°46' W 024°11'713.9
2018-Feb-17 02:00N 37°45' W 024°20'713.8
2018-Feb-17 01:30N 37°45' W 024°28'713.9
2018-Feb-17 01:00N 37°44' W 024°37'713.9
2018-Feb-17 00:30N 37°44' W 024°46'714.2
2018-Feb-17 00:00N 37°43' W 024°55'714.2
2018-Feb-16 23:31N 37°42' W 025°04'714.0
2018-Feb-16 23:00N 37°42' W 025°13'714.2
2018-Feb-16 22:30N 37°41' W 025°21'714.6
2018-Feb-16 22:00N 37°41' W 025°31'714.5
2018-Feb-16 21:30N 37°44' W 025°39'1 1.8
2018-Feb-16 21:00N 37°44' W 025°40'0 0.0
2018-Feb-16 20:30N 37°44' W 025°40'0 0.0
2018-Feb-16 20:00N 37°44' W 025°40'0 0.0
2018-Feb-16 19:30N 37°44' W 025°40'0 0.0
2018-Feb-16 19:00N 37°44' W 025°40'0 0.0
2018-Feb-16 18:30N 37°44' W 025°40'0 0.0
2018-Feb-16 18:00N 37°44' W 025°40'0 0.0
2018-Feb-16 17:30N 37°44' W 025°40'0 0.0
2018-Feb-16 17:00N 37°44' W 025°40'0 0.0
2018-Feb-16 16:30N 37°44' W 025°40'0 0.0
2018-Feb-16 16:00N 37°44' W 025°40'0 0.0
2018-Feb-16 15:30N 37°44' W 025°40'0 0.0
2018-Feb-16 15:00N 37°44' W 025°40'0 0.0
2018-Feb-16 14:30N 37°44' W 025°40'0 0.0
2018-Feb-16 14:00N 37°44' W 025°40'0 0.0
2018-Feb-16 13:30N 37°44' W 025°40'0 0.0
2018-Feb-16 13:00N 37°44' W 025°40'0 0.0
2018-Feb-16 12:30N 37°44' W 025°40'0 0.0
2018-Feb-16 12:00N 37°44' W 025°40'0 0.0
2018-Feb-16 11:30N 37°44' W 025°40'1 1.4
2018-Feb-16 11:01N 37°44' W 025°39'4 8.9
2018-Feb-16 10:30N 37°43' W 025°45'714.2
2018-Feb-16 10:01N 37°46' W 025°53'713.6
2018-Feb-16 09:30N 37°48' W 026°01'713.4
2018-Feb-16 09:00N 37°51' W 026°09'713.2
2018-Feb-16 08:30N 37°54' W 026°17'713.4
2018-Feb-16 08:01N 37°56' W 026°25'714.2
2018-Feb-16 07:30N 37°59' W 026°33'714.0
2018-Feb-16 07:00N 38°02' W 026°41'713.8
2018-Feb-16 06:30N 38°04' W 026°49'713.9
2018-Feb-16 06:00N 38°07' W 026°57'713.8
2018-Feb-16 05:30N 38°10' W 027°05'714.3
2018-Feb-16 05:00N 38°12' W 027°14'714.6
2018-Feb-16 04:30N 38°15' W 027°22'714.3
2018-Feb-16 04:00N 38°18' W 027°31'714.3
2018-Feb-16 03:30N 38°21' W 027°39'714.4
2018-Feb-16 03:01N 38°24' W 027°48'714.3
2018-Feb-16 02:30N 38°26' W 027°56'714.1
2018-Feb-16 02:00N 38°29' W 028°05'714.4
2018-Feb-16 01:30N 38°31' W 028°13'5 9.5
2018-Feb-16 01:00N 38°32' W 028°19'0 0.0
2018-Feb-16 00:31N 38°32' W 028°19'0 0.0
2018-Feb-15 23:58N 38°32' W 028°19'0 0.0
2018-Feb-15 23:30N 38°32' W 028°19'0 0.0
2018-Feb-15 22:58N 38°32' W 028°19'0 0.0
2018-Feb-15 22:28N 38°32' W 028°19'0 0.0
2018-Feb-15 21:58N 38°32' W 028°19'0 0.0
2018-Feb-15 21:30N 38°32' W 028°19'0 0.0
2018-Feb-15 21:00N 38°32' W 028°19'0 0.0
2018-Feb-15 20:28N 38°32' W 028°19'0 0.0
2018-Feb-15 19:58N 38°32' W 028°19'0 0.0
2018-Feb-15 19:27N 38°32' W 028°19'0 0.0
2018-Feb-15 18:58N 38°32' W 028°19'0 0.0
2018-Feb-15 18:28N 38°32' W 028°19'0 0.0
2018-Feb-15 18:00N 38°32' W 028°19'0 0.0
2018-Feb-15 17:30N 38°32' W 028°19'0 0.0
2018-Feb-15 17:00N 38°32' W 028°19'0 0.0
2018-Feb-15 16:31N 38°32' W 028°19'0 0.0
2018-Feb-15 15:57N 38°32' W 028°19'0 0.0
2018-Feb-15 15:28N 38°32' W 028°19'0 0.0
2018-Feb-15 14:58N 38°32' W 028°19'0 0.0
2018-Feb-15 14:30N 38°32' W 028°19'0 0.0
2018-Feb-15 14:01N 38°32' W 028°19'0 0.0
2018-Feb-15 13:28N 38°32' W 028°19'0 0.0
2018-Feb-15 12:58N 38°32' W 028°19'0 0.0
2018-Feb-15 12:28N 38°32' W 028°19'0 0.0
2018-Feb-15 11:58N 38°32' W 028°19'0 0.0
2018-Feb-15 11:28N 38°32' W 028°19'0 0.0
2018-Feb-15 10:58N 38°32' W 028°19'0 0.0
2018-Feb-15 10:28N 38°32' W 028°19'0 0.0
2018-Feb-15 09:58N 38°32' W 028°19'0 0.0
2018-Feb-15 09:28N 38°32' W 028°19'0 0.0
2018-Feb-15 08:58N 38°32' W 028°19'1 3.0
2018-Feb-15 08:30N 38°33' W 028°19'2 3.5
2018-Feb-15 08:00N 38°35' W 028°19'612.0
2018-Feb-15 07:30N 38°32' W 028°12'1 1.3
2018-Feb-15 07:00N 38°32' W 028°11'2 3.8
2018-Feb-15 06:31N 38°33' W 028°13'612.3
2018-Feb-15 06:00N 38°32' W 028°05'612.8
2018-Feb-15 05:31N 38°30' W 027°57'713.3
2018-Feb-15 05:00N 38°29' W 027°49'713.3
2018-Feb-15 04:30N 38°31' W 027°41'612.8
2018-Feb-15 04:01N 38°32' W 027°33'612.7
2018-Feb-15 03:30N 38°33' W 027°25'612.7
2018-Feb-15 03:01N 38°34' W 027°17'713.2
2018-Feb-15 02:31N 38°35' W 027°08'612.9
2018-Feb-15 02:00N 38°38' W 027°01'5 9.7
2018-Feb-15 01:30N 38°43' W 027°03'0 0.4
2018-Feb-15 01:00N 38°43' W 027°03'0 0.0
2018-Feb-15 00:30N 38°43' W 027°03'0 0.0
2018-Feb-15 00:00N 38°43' W 027°03'0 0.0
2018-Feb-14 23:30N 38°43' W 027°03'0 0.0
2018-Feb-14 23:00N 38°43' W 027°03'0 0.0
2018-Feb-14 22:30N 38°43' W 027°03'0 0.0
2018-Feb-14 22:00N 38°43' W 027°03'0 0.0
2018-Feb-14 21:30N 38°43' W 027°03'0 0.0
2018-Feb-14 21:00N 38°43' W 027°03'0 0.0
2018-Feb-14 20:30N 38°43' W 027°03'0 0.0
2018-Feb-14 20:00N 38°43' W 027°03'0 0.0
2018-Feb-14 19:30N 38°43' W 027°03'0 0.0
2018-Feb-14 19:00N 38°43' W 027°03'0 0.0
2018-Feb-14 18:27N 38°43' W 027°03'0 0.0
2018-Feb-14 18:00N 38°43' W 027°03'0 0.0
2018-Feb-14 17:21N 38°43' W 027°03'0 0.0
2018-Feb-14 17:00N 38°43' W 027°03'0 0.0
2018-Feb-14 16:30N 38°43' W 027°03'0 0.0
2018-Feb-14 15:57N 38°43' W 027°03'0 0.0
2018-Feb-14 15:30N 38°43' W 027°03'0 0.0
2018-Feb-14 15:00N 38°43' W 027°03'0 0.0
2018-Feb-14 14:30N 38°43' W 027°03'0 0.0
2018-Feb-14 14:00N 38°43' W 027°03'0 0.0
2018-Feb-14 13:30N 38°43' W 027°03'0 0.0
2018-Feb-14 13:00N 38°43' W 027°03'0 0.0
2018-Feb-14 12:30N 38°43' W 027°03'0 0.0
2018-Feb-14 12:00N 38°43' W 027°03'0 0.0
2018-Feb-14 11:30N 38°43' W 027°03'0 0.0
2018-Feb-14 11:00N 38°43' W 027°03'0 0.0
2018-Feb-14 10:30N 38°43' W 027°03'0 0.0
2018-Feb-14 10:00N 38°43' W 027°03'0 0.0
2018-Feb-14 09:30N 38°43' W 027°03'0 0.0
2018-Feb-14 09:00N 38°43' W 027°03'0 0.0
2018-Feb-14 08:30N 38°43' W 027°03'2 3.3
2018-Feb-14 08:00N 38°43' W 027°01'2 4.0
2018-Feb-14 07:30N 38°43' W 026°58'1011.0
2018-Feb-14 06:35N 38°35' W 026°51'1112.1
2018-Feb-14 05:41N 38°27' W 026°42'211.9
2018-Feb-14 05:30N 38°25' W 026°40'612.1
2018-Feb-14 05:00N 38°21' W 026°35'612.3
2018-Feb-14 04:30N 38°16' W 026°29'612.1
2018-Feb-14 04:00N 38°12' W 026°24'611.9
2018-Feb-14 03:30N 38°08' W 026°19'612.4
2018-Feb-14 03:00N 38°03' W 026°13'612.1
2018-Feb-14 02:30N 37°59' W 026°08'612.0
2018-Feb-14 02:00N 37°54' W 026°03'611.9
2018-Feb-14 01:30N 37°50' W 025°58'612.1
2018-Feb-14 01:01N 37°45' W 025°53'612.0
2018-Feb-14 00:31N 37°41' W 025°48'612.1
2018-Feb-14 00:00N 37°36' W 025°43'1 3.0
2018-Feb-13 23:31N 37°35' W 025°41'1 1.2
2018-Feb-13 23:00N 37°35' W 025°42'1 1.1
2018-Feb-13 22:30N 37°35' W 025°43'1 1.1
2018-Feb-13 22:00N 37°35' W 025°44'1 1.0
2018-Feb-13 21:30N 37°35' W 025°44'0 0.4
2018-Feb-13 21:00N 37°35' W 025°44'612.1
2018-Feb-13 20:30N 37°30' W 025°41'611.9
2018-Feb-13 20:00N 37°25' W 025°37'611.7
2018-Feb-13 19:30N 37°20' W 025°33'611.8
2018-Feb-13 19:01N 37°15' W 025°29'611.4
2018-Feb-13 18:31N 37°10' W 025°25'612.1
2018-Feb-13 18:00N 37°05' W 025°20'612.0
2018-Feb-13 17:31N 37°01' W 025°16'611.4
2018-Feb-13 17:00N 36°56' W 025°12'2 3.4
2018-Feb-13 16:24N 36°57' W 025°09'0 0.0
2018-Feb-13 16:00N 36°57' W 025°09'0 0.0
2018-Feb-13 15:30N 36°57' W 025°09'0 0.0
2018-Feb-13 15:00N 36°57' W 025°09'0 0.0
2018-Feb-13 14:30N 36°57' W 025°09'0 0.0
2018-Feb-13 14:00N 36°57' W 025°09'0 0.0
2018-Feb-13 13:30N 36°57' W 025°09'0 0.0
2018-Feb-13 13:00N 36°57' W 025°09'0 0.0
2018-Feb-13 12:30N 36°57' W 025°09'0 0.0
2018-Feb-13 12:00N 36°57' W 025°09'0 0.0
2018-Feb-13 11:30N 36°57' W 025°09'0 0.0
2018-Feb-13 11:00N 36°57' W 025°09'0 0.0
2018-Feb-13 10:30N 36°57' W 025°09'0 0.0
2018-Feb-13 10:00N 36°57' W 025°09'0 0.0
2018-Feb-13 09:30N 36°57' W 025°09'0 0.0
2018-Feb-13 09:00N 36°57' W 025°09'1 1.3
2018-Feb-13 08:30N 36°56' W 025°09'2 3.1
2018-Feb-13 08:00N 36°54' W 025°09'3 5.2
2018-Feb-13 07:30N 36°52' W 025°08'612.7
2018-Feb-13 07:00N 36°55' W 025°15'713.9
2018-Feb-13 06:30N 37°01' W 025°19'713.5
2018-Feb-13 06:00N 37°07' W 025°22'713.8
2018-Feb-13 05:30N 37°14' W 025°25'714.0
2018-Feb-13 05:00N 37°21' W 025°28'714.0
2018-Feb-13 04:30N 37°27' W 025°31'714.1
2018-Feb-13 04:00N 37°34' W 025°34'714.0
2018-Feb-13 03:30N 37°40' W 025°37'4 8.9
2018-Feb-13 03:00N 37°44' W 025°40'0 0.1
2018-Feb-13 02:28N 37°44' W 025°40'0 0.0
2018-Feb-13 01:58N 37°44' W 025°40'0 0.0
2018-Feb-13 01:28N 37°44' W 025°40'0 0.0
2018-Feb-13 00:58N 37°44' W 025°40'0 0.0
2018-Feb-13 00:28N 37°44' W 025°40'0 0.0
2018-Feb-12 23:58N 37°44' W 025°40'0 0.0
2018-Feb-12 23:28N 37°44' W 025°40'0 0.0
2018-Feb-12 22:58N 37°44' W 025°40'0 0.0
2018-Feb-12 22:28N 37°44' W 025°40'0 0.0
2018-Feb-12 21:58N 37°44' W 025°40'0 0.0
2018-Feb-12 21:28N 37°44' W 025°40'0 0.0
2018-Feb-12 20:58N 37°44' W 025°40'0 0.0
2018-Feb-12 20:28N 37°44' W 025°40'0 0.0
2018-Feb-12 19:58N 37°44' W 025°40'0 0.0
2018-Feb-12 19:28N 37°44' W 025°40'0 0.0
2018-Feb-12 18:58N 37°44' W 025°40'0 0.0
2018-Feb-12 18:28N 37°44' W 025°40'0 0.0
2018-Feb-12 17:58N 37°44' W 025°40'0 0.0
2018-Feb-12 17:28N 37°44' W 025°40'0 0.0
2018-Feb-12 16:58N 37°44' W 025°40'0 0.0
2018-Feb-12 16:28N 37°44' W 025°40'0 0.0
2018-Feb-12 15:58N 37°44' W 025°40'0 0.0
2018-Feb-12 15:28N 37°44' W 025°40'0 0.0
2018-Feb-12 14:58N 37°44' W 025°40'0 0.0
2018-Feb-12 14:28N 37°44' W 025°40'0 0.0
2018-Feb-12 13:58N 37°44' W 025°40'0 0.0
2018-Feb-12 13:28N 37°44' W 025°40'0 0.0
2018-Feb-12 12:58N 37°44' W 025°40'0 0.0
2018-Feb-12 12:28N 37°44' W 025°40'0 0.7
2018-Feb-12 11:58N 37°44' W 025°40'3 7.5
2018-Feb-12 11:30N 37°43' W 025°36'713.1
2018-Feb-12 11:01N 37°40' W 025°28'713.3
2018-Feb-12 10:31N 37°39' W 025°20'713.3
2018-Feb-12 10:00N 37°39' W 025°11'613.1
2018-Feb-12 09:31N 37°39' W 025°03'612.9
2018-Feb-12 09:01N 37°40' W 024°55'612.9
2018-Feb-12 08:30N 37°41' W 024°47'713.1
2018-Feb-12 08:00N 37°41' W 024°39'612.9
2018-Feb-12 07:30N 37°41' W 024°30'612.7
2018-Feb-12 07:00N 37°41' W 024°22'612.8
2018-Feb-12 06:30N 37°42' W 024°14'612.9
2018-Feb-12 06:01N 37°43' W 024°06'613.0
2018-Feb-12 05:30N 37°44' W 023°58'612.9
2018-Feb-12 05:00N 37°44' W 023°50'712.8
2018-Feb-12 04:30N 37°45' W 023°42'64212.5
2018-Feb-10 01:07N 38°30' W 010°08'111.8
2018-Feb-10 01:00N 38°30' W 010°06'611.6
2018-Feb-10 00:30N 38°32' W 009°59'611.8
2018-Feb-10 00:00N 38°33' W 009°51'611.8
2018-Feb-09 23:30N 38°34' W 009°44'611.7
2018-Feb-09 23:00N 38°35' W 009°37'311.5
2018-Feb-09 22:46N 38°36' W 009°33'311.6
2018-Feb-09 22:30N 38°36' W 009°29'612.1
2018-Feb-09 22:00N 38°38' W 009°22'13 6.6
2018-Feb-09 20:00N 38°43' W 009°07'0 0.0
2018-Feb-09 19:30N 38°43' W 009°07'0 0.0
2018-Feb-09 19:00N 38°43' W 009°07'0 0.0
2018-Feb-09 18:30N 38°43' W 009°07'0 0.0
2018-Feb-09 17:00N 38°43' W 009°07'0 0.0
2018-Feb-09 16:00N 38°43' W 009°07'0 0.0
2018-Feb-09 15:00N 38°43' W 009°07'0 0.0
2018-Feb-09 14:00N 38°43' W 009°07'0 0.0
2018-Feb-09 13:30N 38°43' W 009°07'0 0.0
2018-Feb-09 12:00N 38°43' W 009°07'0 0.0
2018-Feb-09 09:30N 38°43' W 009°07'  

Dump ship's entire track history